sensor_id;sensor_type;location;lat;lon;timestamp;P1;durP1;ratioP1;P2;durP2;ratioP2
1276;SDS011;631;51.024;13.826;2024-01-11T00:01:14;23.07;;;20.50;;
1276;SDS011;631;51.024;13.826;2024-01-11T00:03:39;22.93;;;20.37;;
1276;SDS011;631;51.024;13.826;2024-01-11T00:06:05;23.07;;;19.03;;
1276;SDS011;631;51.024;13.826;2024-01-11T00:08:30;27.60;;;19.13;;
1276;SDS011;631;51.024;13.826;2024-01-11T00:10:56;31.20;;;21.90;;
1276;SDS011;631;51.024;13.826;2024-01-11T00:13:22;21.90;;;19.60;;
1276;SDS011;631;51.024;13.826;2024-01-11T00:15:47;22.43;;;20.10;;
1276;SDS011;631;51.024;13.826;2024-01-11T00:18:13;20.47;;;17.93;;
1276;SDS011;631;51.024;13.826;2024-01-11T00:20:38;28.40;;;20.70;;
1276;SDS011;631;51.024;13.826;2024-01-11T00:23:04;20.07;;;17.97;;
1276;SDS011;631;51.024;13.826;2024-01-11T00:25:30;28.80;;;21.80;;
1276;SDS011;631;51.024;13.826;2024-01-11T00:27:55;25.27;;;21.40;;
1276;SDS011;631;51.024;13.826;2024-01-11T00:30:21;24.50;;;20.27;;
1276;SDS011;631;51.024;13.826;2024-01-11T00:32:48;24.75;;;21.02;;
1276;SDS011;631;51.024;13.826;2024-01-11T00:35:14;23.70;;;21.33;;
1276;SDS011;631;51.024;13.826;2024-01-11T00:37:39;22.80;;;20.43;;
1276;SDS011;631;51.024;13.826;2024-01-11T00:40:05;27.53;;;21.47;;
1276;SDS011;631;51.024;13.826;2024-01-11T00:42:31;25.52;;;21.13;;
1276;SDS011;631;51.024;13.826;2024-01-11T00:44:57;24.30;;;21.70;;
1276;SDS011;631;51.024;13.826;2024-01-11T00:47:22;26.37;;;21.80;;
1276;SDS011;631;51.024;13.826;2024-01-11T00:49:48;26.67;;;21.90;;
1276;SDS011;631;51.024;13.826;2024-01-11T00:52:13;28.70;;;21.80;;
1276;SDS011;631;51.024;13.826;2024-01-11T00:54:39;24.50;;;22.10;;
1276;SDS011;631;51.024;13.826;2024-01-11T00:57:05;27.15;;;23.38;;
1276;SDS011;631;51.024;13.826;2024-01-11T00:59:31;26.30;;;22.10;;
1276;SDS011;631;51.024;13.826;2024-01-11T01:01:56;22.90;;;20.60;;
1276;SDS011;631;51.024;13.826;2024-01-11T01:04:22;24.83;;;21.50;;
1276;SDS011;631;51.024;13.826;2024-01-11T01:06:48;27.00;;;21.53;;
1276;SDS011;631;51.024;13.826;2024-01-11T01:09:13;29.93;;;21.30;;
1276;SDS011;631;51.024;13.826;2024-01-11T01:11:39;22.90;;;20.75;;
1276;SDS011;631;51.024;13.826;2024-01-11T01:14:05;21.83;;;19.53;;
1276;SDS011;631;51.024;13.826;2024-01-11T01:16:30;32.00;;;21.87;;
1276;SDS011;631;51.024;13.826;2024-01-11T01:18:56;21.23;;;18.90;;
1276;SDS011;631;51.024;13.826;2024-01-11T01:21:22;23.73;;;20.20;;
1276;SDS011;631;51.024;13.826;2024-01-11T01:23:47;31.33;;;21.20;;
1276;SDS011;631;51.024;13.826;2024-01-11T01:26:13;23.53;;;20.60;;
1276;SDS011;631;51.024;13.826;2024-01-11T01:28:38;27.83;;;20.10;;
1276;SDS011;631;51.024;13.826;2024-01-11T01:31:05;25.13;;;20.23;;
1276;SDS011;631;51.024;13.826;2024-01-11T01:33:30;28.37;;;22.57;;
1276;SDS011;631;51.024;13.826;2024-01-11T01:35:56;27.30;;;22.00;;
1276;SDS011;631;51.024;13.826;2024-01-11T01:38:21;24.40;;;20.70;;
1276;SDS011;631;51.024;13.826;2024-01-11T01:40:48;26.50;;;21.02;;
1276;SDS011;631;51.024;13.826;2024-01-11T01:43:14;29.37;;;21.37;;
1276;SDS011;631;51.024;13.826;2024-01-11T01:45:40;27.20;;;19.53;;
1276;SDS011;631;51.024;13.826;2024-01-11T01:48:05;23.17;;;19.70;;
1276;SDS011;631;51.024;13.826;2024-01-11T01:50:32;23.30;;;20.55;;
1276;SDS011;631;51.024;13.826;2024-01-11T01:52:58;25.00;;;20.30;;
1276;SDS011;631;51.024;13.826;2024-01-11T01:55:24;23.02;;;19.98;;
1276;SDS011;631;51.024;13.826;2024-01-11T01:57:51;26.38;;;20.35;;
1276;SDS011;631;51.024;13.826;2024-01-11T02:00:17;27.30;;;20.52;;
1276;SDS011;631;51.024;13.826;2024-01-11T02:02:43;28.37;;;21.40;;
1276;SDS011;631;51.024;13.826;2024-01-11T02:05:11;21.70;;;18.85;;
1276;SDS011;631;51.024;13.826;2024-01-11T02:07:38;21.85;;;19.55;;
1276;SDS011;631;51.024;13.826;2024-01-11T02:10:04;23.30;;;21.05;;
1276;SDS011;631;51.024;13.826;2024-01-11T02:12:31;23.85;;;21.48;;
1276;SDS011;631;51.024;13.826;2024-01-11T02:14:58;22.88;;;19.73;;
1276;SDS011;631;51.024;13.826;2024-01-11T02:17:25;20.92;;;18.95;;
1276;SDS011;631;51.024;13.826;2024-01-11T02:19:50;26.13;;;20.00;;
1276;SDS011;631;51.024;13.826;2024-01-11T02:22:20;26.33;;;21.40;;
1276;SDS011;631;51.024;13.826;2024-01-11T02:24:52;28.00;;;19.80;;
1276;SDS011;631;51.024;13.826;2024-01-11T02:27:18;24.73;;;21.27;;
1276;SDS011;631;51.024;13.826;2024-01-11T02:29:44;21.98;;;19.85;;
1276;SDS011;631;51.024;13.826;2024-01-11T02:32:10;24.37;;;20.00;;
1276;SDS011;631;51.024;13.826;2024-01-11T02:34:36;25.25;;;20.05;;
1276;SDS011;631;51.024;13.826;2024-01-11T02:37:01;29.43;;;21.57;;
1276;SDS011;631;51.024;13.826;2024-01-11T02:39:27;20.30;;;18.37;;
1276;SDS011;631;51.024;13.826;2024-01-11T02:41:55;24.07;;;20.07;;
1276;SDS011;631;51.024;13.826;2024-01-11T02:44:22;26.13;;;21.25;;
1276;SDS011;631;51.024;13.826;2024-01-11T02:46:48;20.23;;;18.20;;
1276;SDS011;631;51.024;13.826;2024-01-11T02:49:14;22.00;;;19.60;;
1276;SDS011;631;51.024;13.826;2024-01-11T02:51:40;20.50;;;18.60;;
1276;SDS011;631;51.024;13.826;2024-01-11T02:54:05;23.57;;;20.53;;
1276;SDS011;631;51.024;13.826;2024-01-11T02:56:31;20.20;;;18.10;;
1276;SDS011;631;51.024;13.826;2024-01-11T02:58:57;22.40;;;19.90;;
1276;SDS011;631;51.024;13.826;2024-01-11T03:01:23;22.60;;;19.20;;
1276;SDS011;631;51.024;13.826;2024-01-11T03:03:48;21.27;;;19.07;;
1276;SDS011;631;51.024;13.826;2024-01-11T03:06:14;26.90;;;20.27;;
1276;SDS011;631;51.024;13.826;2024-01-11T03:08:39;21.40;;;19.10;;
1276;SDS011;631;51.024;13.826;2024-01-11T03:11:05;24.80;;;21.27;;
1276;SDS011;631;51.024;13.826;2024-01-11T03:13:31;21.37;;;19.47;;
1276;SDS011;631;51.024;13.826;2024-01-11T03:15:56;19.20;;;16.97;;
1276;SDS011;631;51.024;13.826;2024-01-11T03:18:22;22.37;;;19.30;;
1276;SDS011;631;51.024;13.826;2024-01-11T03:20:48;21.43;;;19.10;;
1276;SDS011;631;51.024;13.826;2024-01-11T03:23:13;21.50;;;18.70;;
1276;SDS011;631;51.024;13.826;2024-01-11T03:25:39;22.00;;;19.90;;
1276;SDS011;631;51.024;13.826;2024-01-11T03:28:05;21.47;;;19.27;;
1276;SDS011;631;51.024;13.826;2024-01-11T03:30:30;25.90;;;20.30;;
1276;SDS011;631;51.024;13.826;2024-01-11T03:32:56;26.30;;;18.45;;
1276;SDS011;631;51.024;13.826;2024-01-11T03:35:22;19.53;;;17.53;;
1276;SDS011;631;51.024;13.826;2024-01-11T03:37:47;19.90;;;18.03;;
1276;SDS011;631;51.024;13.826;2024-01-11T03:40:13;20.80;;;18.77;;
1276;SDS011;631;51.024;13.826;2024-01-11T03:42:39;23.63;;;20.00;;
1276;SDS011;631;51.024;13.826;2024-01-11T03:45:06;22.58;;;19.30;;
1276;SDS011;631;51.024;13.826;2024-01-11T03:47:32;19.43;;;17.57;;
1276;SDS011;631;51.024;13.826;2024-01-11T03:49:58;23.57;;;17.97;;
1276;SDS011;631;51.024;13.826;2024-01-11T03:52:23;20.60;;;18.47;;
1276;SDS011;631;51.024;13.826;2024-01-11T03:54:49;20.67;;;18.40;;
1276;SDS011;631;51.024;13.826;2024-01-11T03:57:15;19.77;;;18.03;;
1276;SDS011;631;51.024;13.826;2024-01-11T03:59:41;22.45;;;17.88;;
1276;SDS011;631;51.024;13.826;2024-01-11T04:02:07;20.67;;;18.53;;
1276;SDS011;631;51.024;13.826;2024-01-11T04:04:33;20.77;;;18.77;;
1276;SDS011;631;51.024;13.826;2024-01-11T04:06:59;20.33;;;18.23;;
1276;SDS011;631;51.024;13.826;2024-01-11T04:09:24;20.87;;;18.60;;
1276;SDS011;631;51.024;13.826;2024-01-11T04:11:50;23.83;;;17.93;;
1276;SDS011;631;51.024;13.826;2024-01-11T04:14:15;20.93;;;18.40;;
1276;SDS011;631;51.024;13.826;2024-01-11T04:16:44;21.30;;;18.53;;
1276;SDS011;631;51.024;13.826;2024-01-11T04:19:10;20.45;;;18.30;;
1276;SDS011;631;51.024;13.826;2024-01-11T04:21:36;21.80;;;17.35;;
1276;SDS011;631;51.024;13.826;2024-01-11T04:24:05;18.73;;;16.83;;
1276;SDS011;631;51.024;13.826;2024-01-11T04:26:33;20.02;;;17.88;;
1276;SDS011;631;51.024;13.826;2024-01-11T04:28:59;19.60;;;16.10;;
1276;SDS011;631;51.024;13.826;2024-01-11T04:31:25;16.87;;;15.27;;
1276;SDS011;631;51.024;13.826;2024-01-11T04:33:51;19.63;;;17.50;;
1276;SDS011;631;51.024;13.826;2024-01-11T04:36:17;18.43;;;16.50;;
1276;SDS011;631;51.024;13.826;2024-01-11T04:38:43;22.67;;;18.80;;
1276;SDS011;631;51.024;13.826;2024-01-11T04:41:12;23.73;;;17.98;;
1276;SDS011;631;51.024;13.826;2024-01-11T04:43:42;22.40;;;17.48;;
1276;SDS011;631;51.024;13.826;2024-01-11T04:46:12;23.83;;;18.92;;
1276;SDS011;631;51.024;13.826;2024-01-11T04:48:45;20.67;;;18.50;;
1276;SDS011;631;51.024;13.826;2024-01-11T04:51:12;25.63;;;19.00;;
1276;SDS011;631;51.024;13.826;2024-01-11T04:53:38;19.50;;;17.58;;
1276;SDS011;631;51.024;13.826;2024-01-11T04:56:08;19.73;;;17.83;;
1276;SDS011;631;51.024;13.826;2024-01-11T04:58:35;17.73;;;16.02;;
1276;SDS011;631;51.024;13.826;2024-01-11T05:01:07;19.95;;;17.75;;
1276;SDS011;631;51.024;13.826;2024-01-11T05:03:39;22.42;;;17.20;;
1276;SDS011;631;51.024;13.826;2024-01-11T05:06:05;19.52;;;16.30;;
1276;SDS011;631;51.024;13.826;2024-01-11T05:08:31;17.53;;;15.73;;
1276;SDS011;631;51.024;13.826;2024-01-11T05:10:56;19.80;;;17.77;;
1276;SDS011;631;51.024;13.826;2024-01-11T05:13:22;20.87;;;17.80;;
1276;SDS011;631;51.024;13.826;2024-01-11T05:15:48;22.63;;;18.53;;
1276;SDS011;631;51.024;13.826;2024-01-11T05:18:13;23.13;;;18.37;;
1276;SDS011;631;51.024;13.826;2024-01-11T05:20:39;19.80;;;17.80;;
1276;SDS011;631;51.024;13.826;2024-01-11T05:23:05;21.38;;;17.00;;
1276;SDS011;631;51.024;13.826;2024-01-11T05:25:31;16.97;;;15.33;;
1276;SDS011;631;51.024;13.826;2024-01-11T05:27:58;19.10;;;17.33;;
1276;SDS011;631;51.024;13.826;2024-01-11T05:30:25;17.38;;;15.88;;
1276;SDS011;631;51.024;13.826;2024-01-11T05:32:50;21.00;;;16.27;;
1276;SDS011;631;51.024;13.826;2024-01-11T05:35:16;18.50;;;16.83;;
1276;SDS011;631;51.024;13.826;2024-01-11T05:37:41;18.80;;;17.07;;
1276;SDS011;631;51.024;13.826;2024-01-11T05:40:07;24.23;;;18.37;;
1276;SDS011;631;51.024;13.826;2024-01-11T05:42:33;19.17;;;17.08;;
1276;SDS011;631;51.024;13.826;2024-01-11T05:44:59;18.67;;;16.97;;
1276;SDS011;631;51.024;13.826;2024-01-11T05:47:24;22.30;;;17.43;;
1276;SDS011;631;51.024;13.826;2024-01-11T05:49:50;23.63;;;17.27;;
1276;SDS011;631;51.024;13.826;2024-01-11T05:52:16;18.50;;;16.13;;
1276;SDS011;631;51.024;13.826;2024-01-11T05:54:41;20.47;;;18.50;;
1276;SDS011;631;51.024;13.826;2024-01-11T05:57:07;20.23;;;18.03;;
1276;SDS011;631;51.024;13.826;2024-01-11T05:59:33;19.77;;;17.70;;
1276;SDS011;631;51.024;13.826;2024-01-11T06:01:58;18.27;;;16.13;;
1276;SDS011;631;51.024;13.826;2024-01-11T06:04:26;17.48;;;15.77;;
1276;SDS011;631;51.024;13.826;2024-01-11T06:06:52;21.07;;;17.03;;
1276;SDS011;631;51.024;13.826;2024-01-11T06:09:17;19.53;;;17.53;;
1276;SDS011;631;51.024;13.826;2024-01-11T06:11:43;24.00;;;17.10;;
1276;SDS011;631;51.024;13.826;2024-01-11T06:14:09;23.63;;;16.80;;
1276;SDS011;631;51.024;13.826;2024-01-11T06:16:34;19.33;;;16.93;;
1276;SDS011;631;51.024;13.826;2024-01-11T06:19:00;18.47;;;16.40;;
1276;SDS011;631;51.024;13.826;2024-01-11T06:21:26;24.70;;;17.60;;
1276;SDS011;631;51.024;13.826;2024-01-11T06:23:51;18.53;;;16.57;;
1276;SDS011;631;51.024;13.826;2024-01-11T06:26:17;21.43;;;19.17;;
1276;SDS011;631;51.024;13.826;2024-01-11T06:28:42;17.17;;;15.40;;
1276;SDS011;631;51.024;13.826;2024-01-11T06:31:11;21.20;;;17.83;;
1276;SDS011;631;51.024;13.826;2024-01-11T06:33:37;18.02;;;16.17;;
1276;SDS011;631;51.024;13.826;2024-01-11T06:36:06;22.30;;;17.70;;
1276;SDS011;631;51.024;13.826;2024-01-11T06:38:34;18.17;;;16.40;;
1276;SDS011;631;51.024;13.826;2024-01-11T06:41:00;19.20;;;17.17;;
1276;SDS011;631;51.024;13.826;2024-01-11T06:43:26;18.43;;;16.50;;
1276;SDS011;631;51.024;13.826;2024-01-11T06:45:51;18.70;;;16.70;;
1276;SDS011;631;51.024;13.826;2024-01-11T06:48:19;20.65;;;18.48;;
1276;SDS011;631;51.024;13.826;2024-01-11T06:50:44;19.43;;;17.40;;
1276;SDS011;631;51.024;13.826;2024-01-11T06:53:10;23.53;;;18.37;;
1276;SDS011;631;51.024;13.826;2024-01-11T06:55:36;19.23;;;17.17;;
1276;SDS011;631;51.024;13.826;2024-01-11T06:58:01;19.37;;;16.40;;
1276;SDS011;631;51.024;13.826;2024-01-11T07:00:27;19.63;;;16.50;;
1276;SDS011;631;51.024;13.826;2024-01-11T07:02:53;22.20;;;16.83;;
1276;SDS011;631;51.024;13.826;2024-01-11T07:05:18;19.73;;;17.53;;
1276;SDS011;631;51.024;13.826;2024-01-11T07:07:44;18.42;;;16.65;;
1276;SDS011;631;51.024;13.826;2024-01-11T07:10:10;18.07;;;16.17;;
1276;SDS011;631;51.024;13.826;2024-01-11T07:12:37;19.65;;;16.95;;
1276;SDS011;631;51.024;13.826;2024-01-11T07:15:04;19.92;;;16.95;;
1276;SDS011;631;51.024;13.826;2024-01-11T07:17:30;26.23;;;18.02;;
1276;SDS011;631;51.024;13.826;2024-01-11T07:19:55;21.13;;;18.17;;
1276;SDS011;631;51.024;13.826;2024-01-11T07:22:21;26.73;;;19.23;;
1276;SDS011;631;51.024;13.826;2024-01-11T07:24:47;19.37;;;16.80;;
1276;SDS011;631;51.024;13.826;2024-01-11T07:27:12;18.97;;;17.03;;
1276;SDS011;631;51.024;13.826;2024-01-11T07:29:38;23.30;;;18.00;;
1276;SDS011;631;51.024;13.826;2024-01-11T07:32:03;23.47;;;17.17;;
1276;SDS011;631;51.024;13.826;2024-01-11T07:34:29;27.73;;;20.00;;
1276;SDS011;631;51.024;13.826;2024-01-11T07:36:55;20.60;;;18.43;;
1276;SDS011;631;51.024;13.826;2024-01-11T07:39:21;20.67;;;18.73;;
1276;SDS011;631;51.024;13.826;2024-01-11T07:41:48;25.20;;;20.60;;
1276;SDS011;631;51.024;13.826;2024-01-11T07:44:13;24.92;;;17.77;;
1276;SDS011;631;51.024;13.826;2024-01-11T07:46:39;23.30;;;18.90;;
1276;SDS011;631;51.024;13.826;2024-01-11T07:49:05;24.80;;;20.40;;
1276;SDS011;631;51.024;13.826;2024-01-11T07:51:31;30.30;;;21.60;;
1276;SDS011;631;51.024;13.826;2024-01-11T07:53:59;23.02;;;19.25;;
1276;SDS011;631;51.024;13.826;2024-01-11T07:56:25;24.30;;;16.87;;
1276;SDS011;631;51.024;13.826;2024-01-11T07:58:51;21.83;;;18.00;;
1276;SDS011;631;51.024;13.826;2024-01-11T08:01:16;19.40;;;17.40;;
1276;SDS011;631;51.024;13.826;2024-01-11T08:03:42;20.10;;;16.23;;
1276;SDS011;631;51.024;13.826;2024-01-11T08:06:10;21.73;;;19.30;;
1276;SDS011;631;51.024;13.826;2024-01-11T08:08:35;21.47;;;19.13;;
1276;SDS011;631;51.024;13.826;2024-01-11T08:11:03;29.95;;;19.80;;
1276;SDS011;631;51.024;13.826;2024-01-11T08:13:30;26.23;;;19.33;;
1276;SDS011;631;51.024;13.826;2024-01-11T08:15:56;23.75;;;20.13;;
1276;SDS011;631;51.024;13.826;2024-01-11T08:18:22;23.73;;;18.55;;
1276;SDS011;631;51.024;13.826;2024-01-11T08:20:48;25.65;;;20.20;;
1276;SDS011;631;51.024;13.826;2024-01-11T08:23:14;24.50;;;21.87;;
1276;SDS011;631;51.024;13.826;2024-01-11T08:25:40;22.10;;;19.80;;
1276;SDS011;631;51.024;13.826;2024-01-11T08:28:05;21.73;;;19.70;;
1276;SDS011;631;51.024;13.826;2024-01-11T08:30:32;27.77;;;19.50;;
1276;SDS011;631;51.024;13.826;2024-01-11T08:32:57;22.27;;;19.57;;
1276;SDS011;631;51.024;13.826;2024-01-11T08:35:23;21.97;;;19.67;;
1276;SDS011;631;51.024;13.826;2024-01-11T08:37:49;28.60;;;20.30;;
1276;SDS011;631;51.024;13.826;2024-01-11T08:40:14;22.00;;;19.63;;
1276;SDS011;631;51.024;13.826;2024-01-11T08:42:40;22.75;;;19.50;;
1276;SDS011;631;51.024;13.826;2024-01-11T08:45:07;21.60;;;19.45;;
1276;SDS011;631;51.024;13.826;2024-01-11T08:47:34;24.02;;;19.80;;
1276;SDS011;631;51.024;13.826;2024-01-11T08:49:59;23.55;;;21.05;;
1276;SDS011;631;51.024;13.826;2024-01-11T08:52:25;23.97;;;20.70;;
1276;SDS011;631;51.024;13.826;2024-01-11T08:54:51;27.67;;;21.00;;
1276;SDS011;631;51.024;13.826;2024-01-11T08:57:16;27.03;;;23.80;;
1276;SDS011;631;51.024;13.826;2024-01-11T08:59:42;24.80;;;21.97;;
1276;SDS011;631;51.024;13.826;2024-01-11T09:02:08;29.53;;;24.03;;
1276;SDS011;631;51.024;13.826;2024-01-11T09:04:33;27.00;;;24.20;;
1276;SDS011;631;51.024;13.826;2024-01-11T09:06:59;26.53;;;23.33;;
1276;SDS011;631;51.024;13.826;2024-01-11T09:09:25;36.10;;;25.00;;
1276;SDS011;631;51.024;13.826;2024-01-11T09:11:50;29.47;;;24.53;;
1276;SDS011;631;51.024;13.826;2024-01-11T09:14:16;28.42;;;24.13;;
1276;SDS011;631;51.024;13.826;2024-01-11T09:16:42;25.83;;;23.23;;
1276;SDS011;631;51.024;13.826;2024-01-11T09:19:09;26.05;;;23.08;;
1276;SDS011;631;51.024;13.826;2024-01-11T09:21:35;26.83;;;23.98;;
1276;SDS011;631;51.024;13.826;2024-01-11T09:24:01;24.80;;;22.47;;
1276;SDS011;631;51.024;13.826;2024-01-11T09:26:27;28.50;;;24.57;;
1276;SDS011;631;51.024;13.826;2024-01-11T09:28:52;27.27;;;23.67;;
1276;SDS011;631;51.024;13.826;2024-01-11T09:31:18;25.77;;;23.17;;
1276;SDS011;631;51.024;13.826;2024-01-11T09:33:44;28.67;;;25.17;;
1276;SDS011;631;51.024;13.826;2024-01-11T09:36:10;27.90;;;24.90;;
1276;SDS011;631;51.024;13.826;2024-01-11T09:38:37;28.33;;;25.33;;
1276;SDS011;631;51.024;13.826;2024-01-11T09:43:33;28.70;;;25.23;;
1276;SDS011;631;51.024;13.826;2024-01-11T09:46:00;28.73;;;24.38;;
1276;SDS011;631;51.024;13.826;2024-01-11T09:48:30;26.30;;;23.70;;
1276;SDS011;631;51.024;13.826;2024-01-11T09:51:03;31.17;;;26.38;;
1276;SDS011;631;51.024;13.826;2024-01-11T09:53:31;30.85;;;24.60;;
1276;SDS011;631;51.024;13.826;2024-01-11T09:55:58;29.05;;;24.88;;
1276;SDS011;631;51.024;13.826;2024-01-11T09:58:25;30.63;;;24.08;;
1276;SDS011;631;51.024;13.826;2024-01-11T10:00:53;30.55;;;25.65;;
1276;SDS011;631;51.024;13.826;2024-01-11T10:03:21;32.90;;;26.67;;
1276;SDS011;631;51.024;13.826;2024-01-11T10:05:49;33.25;;;27.10;;
1276;SDS011;631;51.024;13.826;2024-01-11T10:08:16;28.83;;;23.55;;
1276;SDS011;631;51.024;13.826;2024-01-11T10:10:46;30.95;;;25.58;;
1276;SDS011;631;51.024;13.826;2024-01-11T10:13:12;28.20;;;24.60;;
1276;SDS011;631;51.024;13.826;2024-01-11T10:15:37;29.30;;;25.63;;
1276;SDS011;631;51.024;13.826;2024-01-11T10:18:03;31.93;;;25.67;;
1276;SDS011;631;51.024;13.826;2024-01-11T10:20:29;29.47;;;26.27;;
1276;SDS011;631;51.024;13.826;2024-01-11T10:22:57;29.58;;;26.42;;
1276;SDS011;631;51.024;13.826;2024-01-11T10:25:23;33.92;;;27.48;;
1276;SDS011;631;51.024;13.826;2024-01-11T10:27:49;46.23;;;28.40;;
1276;SDS011;631;51.024;13.826;2024-01-11T10:30:15;29.60;;;26.00;;
1276;SDS011;631;51.024;13.826;2024-01-11T10:32:41;33.65;;;28.85;;
1276;SDS011;631;51.024;13.826;2024-01-11T10:35:11;32.55;;;27.02;;
1276;SDS011;631;51.024;13.826;2024-01-11T10:37:37;33.13;;;28.20;;
1276;SDS011;631;51.024;13.826;2024-01-11T10:40:06;41.78;;;29.63;;
1276;SDS011;631;51.024;13.826;2024-01-11T10:42:48;34.33;;;28.67;;
1276;SDS011;631;51.024;13.826;2024-01-11T10:45:17;42.72;;;31.83;;
1276;SDS011;631;51.024;13.826;2024-01-11T10:47:53;43.42;;;30.65;;
1276;SDS011;631;51.024;13.826;2024-01-11T10:50:23;41.25;;;29.55;;
1276;SDS011;631;51.024;13.826;2024-01-11T10:53:00;41.35;;;31.00;;
1276;SDS011;631;51.024;13.826;2024-01-11T10:55:36;39.83;;;30.77;;
1276;SDS011;631;51.024;13.826;2024-01-11T10:58:03;43.22;;;30.90;;
1276;SDS011;631;51.024;13.826;2024-01-11T11:00:30;50.72;;;35.55;;
1276;SDS011;631;51.024;13.826;2024-01-11T11:02:56;44.33;;;32.90;;
1276;SDS011;631;51.024;13.826;2024-01-11T11:05:25;41.40;;;33.05;;
1276;SDS011;631;51.024;13.826;2024-01-11T11:07:53;43.95;;;35.03;;
1276;SDS011;631;51.024;13.826;2024-01-11T11:10:19;41.90;;;34.00;;
1276;SDS011;631;51.024;13.826;2024-01-11T11:12:46;45.50;;;32.80;;
1276;SDS011;631;51.024;13.826;2024-01-11T11:15:14;42.15;;;33.20;;
1276;SDS011;631;51.024;13.826;2024-01-11T11:17:43;38.33;;;33.37;;
1276;SDS011;631;51.024;13.826;2024-01-11T11:20:09;43.95;;;34.80;;
1276;SDS011;631;51.024;13.826;2024-01-11T11:22:42;41.67;;;33.33;;
1276;SDS011;631;51.024;13.826;2024-01-11T11:25:09;40.03;;;32.28;;
1276;SDS011;631;51.024;13.826;2024-01-11T11:27:38;46.92;;;34.22;;
1276;SDS011;631;51.024;13.826;2024-01-11T11:30:04;46.20;;;34.93;;
1276;SDS011;631;51.024;13.826;2024-01-11T11:32:36;51.13;;;36.50;;
1276;SDS011;631;51.024;13.826;2024-01-11T11:35:03;46.67;;;36.17;;
1276;SDS011;631;51.024;13.826;2024-01-11T11:37:33;53.50;;;39.20;;
1276;SDS011;631;51.024;13.826;2024-01-11T11:40:01;54.57;;;41.20;;
1276;SDS011;631;51.024;13.826;2024-01-11T11:42:30;52.00;;;40.60;;
1276;SDS011;631;51.024;13.826;2024-01-11T11:44:55;50.80;;;39.00;;
1276;SDS011;631;51.024;13.826;2024-01-11T11:47:23;55.90;;;41.23;;
1276;SDS011;631;51.024;13.826;2024-01-11T11:50:08;55.97;;;42.83;;
1276;SDS011;631;51.024;13.826;2024-01-11T11:52:39;52.80;;;42.90;;
1276;SDS011;631;51.024;13.826;2024-01-11T11:55:07;53.97;;;42.83;;
1276;SDS011;631;51.024;13.826;2024-01-11T11:57:34;54.70;;;43.57;;
1276;SDS011;631;51.024;13.826;2024-01-11T12:00:01;55.47;;;44.27;;
1276;SDS011;631;51.024;13.826;2024-01-11T12:02:31;58.30;;;43.20;;
1276;SDS011;631;51.024;13.826;2024-01-11T12:04:57;56.50;;;42.50;;
1276;SDS011;631;51.024;13.826;2024-01-11T12:07:23;50.23;;;40.50;;
1276;SDS011;631;51.024;13.826;2024-01-11T12:09:50;53.27;;;41.40;;
1276;SDS011;631;51.024;13.826;2024-01-11T12:12:17;55.57;;;39.53;;
1276;SDS011;631;51.024;13.826;2024-01-11T12:14:45;50.23;;;39.40;;
1276;SDS011;631;51.024;13.826;2024-01-11T12:17:14;48.30;;;37.53;;
1276;SDS011;631;51.024;13.826;2024-01-11T12:19:40;50.33;;;38.63;;
1276;SDS011;631;51.024;13.826;2024-01-11T12:22:06;49.90;;;36.17;;
1276;SDS011;631;51.024;13.826;2024-01-11T12:24:32;49.20;;;36.07;;
1276;SDS011;631;51.024;13.826;2024-01-11T12:26:59;56.28;;;36.30;;
1276;SDS011;631;51.024;13.826;2024-01-11T12:29:25;44.92;;;35.20;;
1276;SDS011;631;51.024;13.826;2024-01-11T12:31:55;49.92;;;35.65;;
1276;SDS011;631;51.024;13.826;2024-01-11T12:34:22;58.35;;;38.17;;
1276;SDS011;631;51.024;13.826;2024-01-11T12:36:49;49.28;;;35.50;;
1276;SDS011;631;51.024;13.826;2024-01-11T12:39:16;51.80;;;35.00;;
1276;SDS011;631;51.024;13.826;2024-01-11T12:41:42;47.20;;;35.33;;
1276;SDS011;631;51.024;13.826;2024-01-11T12:44:08;48.20;;;33.83;;
1276;SDS011;631;51.024;13.826;2024-01-11T12:46:34;49.63;;;35.42;;
1276;SDS011;631;51.024;13.826;2024-01-11T12:49:00;47.33;;;35.23;;
1276;SDS011;631;51.024;13.826;2024-01-11T12:51:26;46.33;;;34.70;;
1276;SDS011;631;51.024;13.826;2024-01-11T12:53:52;46.17;;;33.13;;
1276;SDS011;631;51.024;13.826;2024-01-11T12:56:18;47.50;;;34.55;;
1276;SDS011;631;51.024;13.826;2024-01-11T12:58:46;45.40;;;33.65;;
1276;SDS011;631;51.024;13.826;2024-01-11T13:01:12;49.92;;;33.22;;
1276;SDS011;631;51.024;13.826;2024-01-11T13:03:39;47.28;;;33.95;;
1276;SDS011;631;51.024;13.826;2024-01-11T13:06:08;47.88;;;36.85;;
1276;SDS011;631;51.024;13.826;2024-01-11T13:08:36;55.00;;;36.85;;
1276;SDS011;631;51.024;13.826;2024-01-11T13:11:05;48.83;;;35.58;;
1276;SDS011;631;51.024;13.826;2024-01-11T13:13:32;47.10;;;35.15;;
1276;SDS011;631;51.024;13.826;2024-01-11T13:16:04;51.00;;;34.42;;
1276;SDS011;631;51.024;13.826;2024-01-11T13:18:36;42.53;;;33.03;;
1276;SDS011;631;51.024;13.826;2024-01-11T13:21:01;51.07;;;36.23;;
1276;SDS011;631;51.024;13.826;2024-01-11T13:23:27;46.08;;;34.90;;
1276;SDS011;631;51.024;13.826;2024-01-11T13:25:53;47.07;;;33.63;;
1276;SDS011;631;51.024;13.826;2024-01-11T13:28:19;52.37;;;36.73;;
1276;SDS011;631;51.024;13.826;2024-01-11T13:30:45;49.23;;;35.47;;
1276;SDS011;631;51.024;13.826;2024-01-11T13:33:11;45.90;;;34.97;;
1276;SDS011;631;51.024;13.826;2024-01-11T13:35:39;45.72;;;33.00;;
1276;SDS011;631;51.024;13.826;2024-01-11T13:38:06;48.28;;;33.72;;
1276;SDS011;631;51.024;13.826;2024-01-11T13:40:32;42.72;;;32.97;;
1276;SDS011;631;51.024;13.826;2024-01-11T13:42:58;48.47;;;35.00;;
1276;SDS011;631;51.024;13.826;2024-01-11T13:45:24;50.17;;;33.47;;
1276;SDS011;631;51.024;13.826;2024-01-11T13:47:54;43.35;;;32.20;;
1276;SDS011;631;51.024;13.826;2024-01-11T13:50:21;48.25;;;33.25;;
1276;SDS011;631;51.024;13.826;2024-01-11T13:52:49;42.40;;;31.13;;
1276;SDS011;631;51.024;13.826;2024-01-11T13:55:15;41.60;;;31.25;;
1276;SDS011;631;51.024;13.826;2024-01-11T13:57:42;45.65;;;32.83;;
1276;SDS011;631;51.024;13.826;2024-01-11T14:00:08;46.70;;;33.93;;
1276;SDS011;631;51.024;13.826;2024-01-11T14:02:36;43.88;;;32.60;;
1276;SDS011;631;51.024;13.826;2024-01-11T14:05:02;44.88;;;32.47;;
1276;SDS011;631;51.024;13.826;2024-01-11T14:07:29;48.97;;;33.20;;
1276;SDS011;631;51.024;13.826;2024-01-11T14:09:55;42.07;;;30.67;;
1276;SDS011;631;51.024;13.826;2024-01-11T14:12:21;46.43;;;30.70;;
1276;SDS011;631;51.024;13.826;2024-01-11T14:14:47;45.80;;;32.63;;
1276;SDS011;631;51.024;13.826;2024-01-11T14:17:12;47.30;;;33.40;;
1276;SDS011;631;51.024;13.826;2024-01-11T14:19:38;44.03;;;31.63;;
1276;SDS011;631;51.024;13.826;2024-01-11T14:22:04;45.80;;;33.63;;
1276;SDS011;631;51.024;13.826;2024-01-11T14:24:30;44.00;;;32.43;;
1276;SDS011;631;51.024;13.826;2024-01-11T14:26:55;54.30;;;33.77;;
1276;SDS011;631;51.024;13.826;2024-01-11T14:29:21;48.77;;;34.17;;
1276;SDS011;631;51.024;13.826;2024-01-11T14:31:46;44.17;;;32.27;;
1276;SDS011;631;51.024;13.826;2024-01-11T14:34:13;47.85;;;30.83;;
1276;SDS011;631;51.024;13.826;2024-01-11T14:36:38;39.97;;;31.23;;
1276;SDS011;631;51.024;13.826;2024-01-11T14:39:04;36.23;;;29.70;;
1276;SDS011;631;51.024;13.826;2024-01-11T14:41:30;41.67;;;30.13;;
1276;SDS011;631;51.024;13.826;2024-01-11T14:43:56;39.15;;;29.50;;
1276;SDS011;631;51.024;13.826;2024-01-11T14:46:23;43.92;;;28.40;;